sensor_id;sensor_type;location;lat;lon;timestamp;temperature;humidity
32660;DHT22;19064;47.912;12.308;2022-09-12T00:01:06;11.10;99.90
32660;DHT22;19064;47.912;12.308;2022-09-12T00:03:35;11.10;99.90
32660;DHT22;19064;47.912;12.308;2022-09-12T00:06:08;11.00;99.90
32660;DHT22;19064;47.912;12.308;2022-09-12T00:08:37;11.10;99.90
32660;DHT22;19064;47.912;12.308;2022-09-12T00:11:09;11.10;99.90
32660;DHT22;19064;47.912;12.308;2022-09-12T00:13:39;11.10;99.90
32660;DHT22;19064;47.912;12.308;2022-09-12T00:16:13;11.10;99.90
32660;DHT22;19064;47.912;12.308;2022-09-12T00:18:41;11.10;99.90
32660;DHT22;19064;47.912;12.308;2022-09-12T00:21:10;11.20;99.90
32660;DHT22;19064;47.912;12.308;2022-09-12T00:23:39;11.30;99.90
32660;DHT22;19064;47.912;12.308;2022-09-12T00:26:13;11.30;99.90
32660;DHT22;19064;47.912;12.308;2022-09-12T00:28:41;11.40;99.90
32660;DHT22;19064;47.912;12.308;2022-09-12T00:31:11;11.20;99.90
32660;DHT22;19064;47.912;12.308;2022-09-12T00:33:40;11.00;99.90
32660;DHT22;19064;47.912;12.308;2022-09-12T00:36:10;10.90;99.90
32660;DHT22;19064;47.912;12.308;2022-09-12T00:41:16;10.80;99.90
32660;DHT22;19064;47.912;12.308;2022-09-12T00:43:45;10.80;99.90
32660;DHT22;19064;47.912;12.308;2022-09-12T00:46:27;10.80;99.90
32660;DHT22;19064;47.912;12.308;2022-09-12T00:49:04;10.80;99.90
32660;DHT22;19064;47.912;12.308;2022-09-12T00:51:35;10.90;99.90
32660;DHT22;19064;47.912;12.308;2022-09-12T00:54:09;10.90;99.90
32660;DHT22;19064;47.912;12.308;2022-09-12T00:56:42;11.00;99.90
32660;DHT22;19064;47.912;12.308;2022-09-12T00:59:14;11.10;99.90
32660;DHT22;19064;47.912;12.308;2022-09-12T01:01:46;11.10;99.90
32660;DHT22;19064;47.912;12.308;2022-09-12T01:04:18;11.10;99.90
32660;DHT22;19064;47.912;12.308;2022-09-12T01:06:47;11.00;99.90
32660;DHT22;19064;47.912;12.308;2022-09-12T01:09:19;10.90;99.90
32660;DHT22;19064;47.912;12.308;2022-09-12T01:11:49;10.80;99.90
32660;DHT22;19064;47.912;12.308;2022-09-12T01:14:19;10.80;99.90
32660;DHT22;19064;47.912;12.308;2022-09-12T01:16:48;10.60;99.90
32660;DHT22;19064;47.912;12.308;2022-09-12T01:19:39;10.60;99.90
32660;DHT22;19064;47.912;12.308;2022-09-12T01:22:27;10.70;99.90
32660;DHT22;19064;47.912;12.308;2022-09-12T01:25:07;10.60;99.90
32660;DHT22;19064;47.912;12.308;2022-09-12T01:27:47;10.60;99.90
32660;DHT22;19064;47.912;12.308;2022-09-12T01:30:44;10.50;99.90
32660;DHT22;19064;47.912;12.308;2022-09-12T01:33:46;10.50;99.90
32660;DHT22;19064;47.912;12.308;2022-09-12T01:36:35;10.50;99.90
32660;DHT22;19064;47.912;12.308;2022-09-12T01:39:07;10.50;99.90
32660;DHT22;19064;47.912;12.308;2022-09-12T01:41:43;10.70;99.90
32660;DHT22;19064;47.912;12.308;2022-09-12T01:44:22;10.70;99.90
32660;DHT22;19064;47.912;12.308;2022-09-12T01:46:58;10.60;99.90
32660;DHT22;19064;47.912;12.308;2022-09-12T01:49:30;10.70;99.90
32660;DHT22;19064;47.912;12.308;2022-09-12T01:52:03;10.90;99.90
32660;DHT22;19064;47.912;12.308;2022-09-12T01:54:39;10.90;99.90
32660;DHT22;19064;47.912;12.308;2022-09-12T01:57:12;10.90;99.90
32660;DHT22;19064;47.912;12.308;2022-09-12T01:59:45;10.90;99.90
32660;DHT22;19064;47.912;12.308;2022-09-12T02:02:20;11.00;99.90
32660;DHT22;19064;47.912;12.308;2022-09-12T02:04:52;11.00;99.90
32660;DHT22;19064;47.912;12.308;2022-09-12T02:07:28;11.10;99.90
32660;DHT22;19064;47.912;12.308;2022-09-12T02:10:03;11.00;99.90
32660;DHT22;19064;47.912;12.308;2022-09-12T02:12:38;11.00;99.90
32660;DHT22;19064;47.912;12.308;2022-09-12T02:15:11;10.90;99.90
32660;DHT22;19064;47.912;12.308;2022-09-12T02:17:46;10.90;99.90
32660;DHT22;19064;47.912;12.308;2022-09-12T02:20:19;10.90;99.90
32660;DHT22;19064;47.912;12.308;2022-09-12T02:22:51;10.90;99.90
32660;DHT22;19064;47.912;12.308;2022-09-12T02:25:21;10.90;99.90
32660;DHT22;19064;47.912;12.308;2022-09-12T02:27:59;10.90;99.90
32660;DHT22;19064;47.912;12.308;2022-09-12T02:30:38;10.90;99.90
32660;DHT22;19064;47.912;12.308;2022-09-12T02:33:16;10.90;99.90
32660;DHT22;19064;47.912;12.308;2022-09-12T02:35:52;10.80;99.90
32660;DHT22;19064;47.912;12.308;2022-09-12T02:38:31;10.70;99.90
32660;DHT22;19064;47.912;12.308;2022-09-12T02:41:02;10.60;99.90
32660;DHT22;19064;47.912;12.308;2022-09-12T02:43:30;10.60;99.90
32660;DHT22;19064;47.912;12.308;2022-09-12T02:45:58;10.50;99.90
32660;DHT22;19064;47.912;12.308;2022-09-12T02:48:33;10.40;99.90
32660;DHT22;19064;47.912;12.308;2022-09-12T02:51:02;10.40;99.90
32660;DHT22;19064;47.912;12.308;2022-09-12T02:53:31;10.50;99.90
32660;DHT22;19064;47.912;12.308;2022-09-12T02:56:00;10.60;99.90
32660;DHT22;19064;47.912;12.308;2022-09-12T02:58:30;10.60;99.90
32660;DHT22;19064;47.912;12.308;2022-09-12T03:01:07;10.50;99.90
32660;DHT22;19064;47.912;12.308;2022-09-12T03:03:55;10.60;99.90
32660;DHT22;19064;47.912;12.308;2022-09-12T03:06:32;10.50;99.90
32660;DHT22;19064;47.912;12.308;2022-09-12T03:09:08;10.40;99.90
32660;DHT22;19064;47.912;12.308;2022-09-12T03:12:00;10.40;99.90
32660;DHT22;19064;47.912;12.308;2022-09-12T03:14:48;10.50;99.90
32660;DHT22;19064;47.912;12.308;2022-09-12T03:17:24;10.40;99.90
32660;DHT22;19064;47.912;12.308;2022-09-12T03:20:02;10.40;99.90
32660;DHT22;19064;47.912;12.308;2022-09-12T03:22:36;10.30;99.90
32660;DHT22;19064;47.912;12.308;2022-09-12T03:25:16;10.20;99.90
32660;DHT22;19064;47.912;12.308;2022-09-12T03:27:53;10.30;99.90
32660;DHT22;19064;47.912;12.308;2022-09-12T03:30:23;10.30;99.90
32660;DHT22;19064;47.912;12.308;2022-09-12T03:32:52;10.30;99.90
32660;DHT22;19064;47.912;12.308;2022-09-12T03:35:23;10.30;99.90
32660;DHT22;19064;47.912;12.308;2022-09-12T03:37:52;10.30;99.90
32660;DHT22;19064;47.912;12.308;2022-09-12T03:40:20;10.20;99.90
32660;DHT22;19064;47.912;12.308;2022-09-12T03:47:45;10.10;99.90
32660;DHT22;19064;47.912;12.308;2022-09-12T03:50:15;9.90;99.90
32660;DHT22;19064;47.912;12.308;2022-09-12T03:52:45;9.90;99.90
32660;DHT22;19064;47.912;12.308;2022-09-12T03:55:13;9.90;99.90
32660;DHT22;19064;47.912;12.308;2022-09-12T03:57:41;9.80;99.90
32660;DHT22;19064;47.912;12.308;2022-09-12T04:00:10;9.90;99.90
32660;DHT22;19064;47.912;12.308;2022-09-12T04:02:38;9.80;99.90
32660;DHT22;19064;47.912;12.308;2022-09-12T04:05:06;9.70;99.90
32660;DHT22;19064;47.912;12.308;2022-09-12T04:07:34;9.60;99.90
32660;DHT22;19064;47.912;12.308;2022-09-12T04:10:04;9.70;99.90
32660;DHT22;19064;47.912;12.308;2022-09-12T04:12:34;9.60;99.90
32660;DHT22;19064;47.912;12.308;2022-09-12T04:15:02;9.60;99.90
32660;DHT22;19064;47.912;12.308;2022-09-12T04:17:30;9.60;99.90
32660;DHT22;19064;47.912;12.308;2022-09-12T04:19:59;9.50;99.90
32660;DHT22;19064;47.912;12.308;2022-09-12T04:24:58;9.60;99.90
32660;DHT22;19064;47.912;12.308;2022-09-12T04:27:27;9.60;99.90
32660;DHT22;19064;47.912;12.308;2022-09-12T04:29:55;9.60;99.90
32660;DHT22;19064;47.912;12.308;2022-09-12T04:32:23;9.60;99.90
32660;DHT22;19064;47.912;12.308;2022-09-12T04:34:51;9.50;99.90
32660;DHT22;19064;47.912;12.308;2022-09-12T04:37:19;9.40;99.90
32660;DHT22;19064;47.912;12.308;2022-09-12T04:39:49;9.30;99.90
32660;DHT22;19064;47.912;12.308;2022-09-12T04:42:17;9.40;99.90
32660;DHT22;19064;47.912;12.308;2022-09-12T04:44:48;9.40;99.90
32660;DHT22;19064;47.912;12.308;2022-09-12T04:47:16;9.50;99.90
32660;DHT22;19064;47.912;12.308;2022-09-12T04:49:44;9.50;99.90
32660;DHT22;19064;47.912;12.308;2022-09-12T04:54:40;9.30;99.90
32660;DHT22;19064;47.912;12.308;2022-09-12T04:57:09;9.10;99.90
32660;DHT22;19064;47.912;12.308;2022-09-12T04:59:39;9.10;99.90
32660;DHT22;19064;47.912;12.308;2022-09-12T05:02:11;9.00;99.90
32660;DHT22;19064;47.912;12.308;2022-09-12T05:04:39;8.90;99.90
32660;DHT22;19064;47.912;12.308;2022-09-12T05:07:07;8.90;99.90
32660;DHT22;19064;47.912;12.308;2022-09-12T05:09:35;9.00;99.90
32660;DHT22;19064;47.912;12.308;2022-09-12T05:12:03;8.90;99.90
32660;DHT22;19064;47.912;12.308;2022-09-12T05:14:31;9.00;99.90
32660;DHT22;19064;47.912;12.308;2022-09-12T05:17:03;9.00;99.90
32660;DHT22;19064;47.912;12.308;2022-09-12T05:19:33;9.00;99.90
32660;DHT22;19064;47.912;12.308;2022-09-12T05:22:01;9.00;99.90
32660;DHT22;19064;47.912;12.308;2022-09-12T05:24:30;9.20;99.90
32660;DHT22;19064;47.912;12.308;2022-09-12T05:26:59;9.30;99.90
32660;DHT22;19064;47.912;12.308;2022-09-12T05:29:28;9.40;99.90
32660;DHT22;19064;47.912;12.308;2022-09-12T05:31:58;9.50;99.90
32660;DHT22;19064;47.912;12.308;2022-09-12T05:34:26;9.70;99.90
32660;DHT22;19064;47.912;12.308;2022-09-12T05:36:58;9.80;99.90
32660;DHT22;19064;47.912;12.308;2022-09-12T05:39:26;9.90;99.90
32660;DHT22;19064;47.912;12.308;2022-09-12T05:41:54;10.00;99.90
32660;DHT22;19064;47.912;12.308;2022-09-12T05:44:22;10.00;99.90
32660;DHT22;19064;47.912;12.308;2022-09-12T05:46:50;10.10;99.90
32660;DHT22;19064;47.912;12.308;2022-09-12T05:49:21;10.10;99.90
32660;DHT22;19064;47.912;12.308;2022-09-12T05:51:49;10.20;99.90
32660;DHT22;19064;47.912;12.308;2022-09-12T05:54:18;10.20;99.90
32660;DHT22;19064;47.912;12.308;2022-09-12T05:56:47;10.30;99.90
32660;DHT22;19064;47.912;12.308;2022-09-12T05:59:17;10.30;99.90
32660;DHT22;19064;47.912;12.308;2022-09-12T06:02:15;10.40;99.90
32660;DHT22;19064;47.912;12.308;2022-09-12T06:04:50;10.40;99.90
32660;DHT22;19064;47.912;12.308;2022-09-12T06:07:20;10.40;99.90
32660;DHT22;19064;47.912;12.308;2022-09-12T06:09:49;10.60;99.90
32660;DHT22;19064;47.912;12.308;2022-09-12T06:12:17;10.60;99.90
32660;DHT22;19064;47.912;12.308;2022-09-12T06:14:45;10.70;99.90
32660;DHT22;19064;47.912;12.308;2022-09-12T06:17:13;10.80;99.90
32660;DHT22;19064;47.912;12.308;2022-09-12T06:19:41;10.90;99.90
32660;DHT22;19064;47.912;12.308;2022-09-12T06:22:09;11.00;99.90
32660;DHT22;19064;47.912;12.308;2022-09-12T06:27:10;11.10;99.90
32660;DHT22;19064;47.912;12.308;2022-09-12T06:29:38;11.20;99.90
32660;DHT22;19064;47.912;12.308;2022-09-12T06:32:06;11.30;99.90
32660;DHT22;19064;47.912;12.308;2022-09-12T06:34:34;11.40;99.90
32660;DHT22;19064;47.912;12.308;2022-09-12T06:41:59;11.60;99.90
32660;DHT22;19064;47.912;12.308;2022-09-12T06:44:32;11.70;99.90
32660;DHT22;19064;47.912;12.308;2022-09-12T06:47:02;11.70;99.90
32660;DHT22;19064;47.912;12.308;2022-09-12T06:49:29;11.80;99.90
32660;DHT22;19064;47.912;12.308;2022-09-12T06:59:25;12.30;99.90
32660;DHT22;19064;47.912;12.308;2022-09-12T07:01:59;12.50;99.90
32660;DHT22;19064;47.912;12.308;2022-09-12T07:04:27;12.60;99.90
32660;DHT22;19064;47.912;12.308;2022-09-12T07:06:56;12.50;99.90
32660;DHT22;19064;47.912;12.308;2022-09-12T07:09:24;12.70;99.90
32660;DHT22;19064;47.912;12.308;2022-09-12T07:11:52;12.80;99.90
32660;DHT22;19064;47.912;12.308;2022-09-12T07:14:19;12.70;99.90
32660;DHT22;19064;47.912;12.308;2022-09-12T07:16:46;12.80;99.90
32660;DHT22;19064;47.912;12.308;2022-09-12T07:19:14;12.80;99.90
32660;DHT22;19064;47.912;12.308;2022-09-12T07:21:41;12.90;99.90
32660;DHT22;19064;47.912;12.308;2022-09-12T07:24:08;12.90;99.90
32660;DHT22;19064;47.912;12.308;2022-09-12T07:26:36;13.00;99.90
32660;DHT22;19064;47.912;12.308;2022-09-12T07:29:03;13.10;99.90
32660;DHT22;19064;47.912;12.308;2022-09-12T07:31:30;13.20;99.90
32660;DHT22;19064;47.912;12.308;2022-09-12T07:33:57;13.50;99.90
32660;DHT22;19064;47.912;12.308;2022-09-12T07:36:27;13.70;99.90
32660;DHT22;19064;47.912;12.308;2022-09-12T07:38:56;13.60;99.90
32660;DHT22;19064;47.912;12.308;2022-09-12T07:41:30;13.70;99.90
32660;DHT22;19064;47.912;12.308;2022-09-12T07:44:02;14.00;99.90
32660;DHT22;19064;47.912;12.308;2022-09-12T07:46:32;14.10;99.90
32660;DHT22;19064;47.912;12.308;2022-09-12T07:49:01;14.20;99.90
32660;DHT22;19064;47.912;12.308;2022-09-12T07:51:38;14.30;99.90
32660;DHT22;19064;47.912;12.308;2022-09-12T07:54:07;14.40;99.90
32660;DHT22;19064;47.912;12.308;2022-09-12T07:56:36;14.60;99.90
32660;DHT22;19064;47.912;12.308;2022-09-12T07:59:02;14.70;99.90
32660;DHT22;19064;47.912;12.308;2022-09-12T08:01:30;14.70;99.90
32660;DHT22;19064;47.912;12.308;2022-09-12T08:03:59;14.70;99.90
32660;DHT22;19064;47.912;12.308;2022-09-12T08:06:28;14.70;99.90
32660;DHT22;19064;47.912;12.308;2022-09-12T08:09:03;14.70;99.90
32660;DHT22;19064;47.912;12.308;2022-09-12T08:11:32;14.90;99.90
32660;DHT22;19064;47.912;12.308;2022-09-12T08:14:00;15.10;99.90
32660;DHT22;19064;47.912;12.308;2022-09-12T08:16:32;15.40;99.90
32660;DHT22;19064;47.912;12.308;2022-09-12T08:19:01;15.70;99.90
32660;DHT22;19064;47.912;12.308;2022-09-12T08:21:31;15.90;99.90
32660;DHT22;19064;47.912;12.308;2022-09-12T08:24:01;16.00;99.90
32660;DHT22;19064;47.912;12.308;2022-09-12T08:26:29;16.10;99.90
32660;DHT22;19064;47.912;12.308;2022-09-12T08:28:57;16.20;99.90
32660;DHT22;19064;47.912;12.308;2022-09-12T08:31:25;16.40;99.90
32660;DHT22;19064;47.912;12.308;2022-09-12T08:33:54;16.50;99.90
32660;DHT22;19064;47.912;12.308;2022-09-12T08:36:23;16.60;99.90
32660;DHT22;19064;47.912;12.308;2022-09-12T08:38:52;16.70;99.90
32660;DHT22;19064;47.912;12.308;2022-09-12T08:41:25;16.80;99.90
32660;DHT22;19064;47.912;12.308;2022-09-12T08:44:10;16.80;99.90
32660;DHT22;19064;47.912;12.308;2022-09-12T08:46:49;17.00;99.90
32660;DHT22;19064;47.912;12.308;2022-09-12T08:49:23;17.10;99.90
32660;DHT22;19064;47.912;12.308;2022-09-12T08:51:51;17.00;99.90
32660;DHT22;19064;47.912;12.308;2022-09-12T08:54:23;17.00;99.90
32660;DHT22;19064;47.912;12.308;2022-09-12T08:56:55;17.20;99.90
32660;DHT22;19064;47.912;12.308;2022-09-12T08:59:24;17.20;99.90
32660;DHT22;19064;47.912;12.308;2022-09-12T09:01:55;17.30;99.90
32660;DHT22;19064;47.912;12.308;2022-09-12T09:04:36;17.40;99.90
32660;DHT22;19064;47.912;12.308;2022-09-12T09:07:27;17.50;99.90
32660;DHT22;19064;47.912;12.308;2022-09-12T09:10:10;17.60;99.90
32660;DHT22;19064;47.912;12.308;2022-09-12T09:12:47;17.80;99.90
32660;DHT22;19064;47.912;12.308;2022-09-12T09:15:37;17.90;99.90
32660;DHT22;19064;47.912;12.308;2022-09-12T09:18:13;18.10;99.90
32660;DHT22;19064;47.912;12.308;2022-09-12T09:20:46;18.00;99.90
32660;DHT22;19064;47.912;12.308;2022-09-12T09:23:22;18.20;99.90
32660;DHT22;19064;47.912;12.308;2022-09-12T09:25:55;18.40;99.90
32660;DHT22;19064;47.912;12.308;2022-09-12T09:28:41;18.60;99.90
32660;DHT22;19064;47.912;12.308;2022-09-12T09:31:16;18.70;99.90
32660;DHT22;19064;47.912;12.308;2022-09-12T09:33:53;18.70;99.90
32660;DHT22;19064;47.912;12.308;2022-09-12T09:36:21;18.70;99.90
32660;DHT22;19064;47.912;12.308;2022-09-12T09:39:03;18.70;99.90
32660;DHT22;19064;47.912;12.308;2022-09-12T09:41:48;18.50;99.90
32660;DHT22;19064;47.912;12.308;2022-09-12T09:44:19;18.30;99.90
32660;DHT22;19064;47.912;12.308;2022-09-12T09:46:51;18.40;99.90
32660;DHT22;19064;47.912;12.308;2022-09-12T09:49:22;18.40;99.90
32660;DHT22;19064;47.912;12.308;2022-09-12T09:51:53;18.40;99.90
32660;DHT22;19064;47.912;12.308;2022-09-12T09:54:27;18.20;99.90
32660;DHT22;19064;47.912;12.308;2022-09-12T09:56:58;18.30;99.90
32660;DHT22;19064;47.912;12.308;2022-09-12T09:59:30;18.40;99.90
32660;DHT22;19064;47.912;12.308;2022-09-12T10:02:01;18.40;99.90
32660;DHT22;19064;47.912;12.308;2022-09-12T10:04:32;18.50;99.90
32660;DHT22;19064;47.912;12.308;2022-09-12T10:07:01;18.50;99.90
32660;DHT22;19064;47.912;12.308;2022-09-12T10:09:30;18.60;99.90
32660;DHT22;19064;47.912;12.308;2022-09-12T10:11:59;18.60;99.90
32660;DHT22;19064;47.912;12.308;2022-09-12T10:14:34;18.50;99.90
32660;DHT22;19064;47.912;12.308;2022-09-12T10:19:46;18.70;99.90
32660;DHT22;19064;47.912;12.308;2022-09-12T10:22:17;18.80;99.90
32660;DHT22;19064;47.912;12.308;2022-09-12T10:24:47;18.80;99.90
32660;DHT22;19064;47.912;12.308;2022-09-12T10:27:19;18.80;99.90
32660;DHT22;19064;47.912;12.308;2022-09-12T10:29:49;18.80;99.90
32660;DHT22;19064;47.912;12.308;2022-09-12T10:32:23;18.90;99.90
32660;DHT22;19064;47.912;12.308;2022-09-12T10:34:53;18.90;99.90
32660;DHT22;19064;47.912;12.308;2022-09-12T10:37:25;19.00;99.90
32660;DHT22;19064;47.912;12.308;2022-09-12T10:39:56;19.00;99.90
32660;DHT22;19064;47.912;12.308;2022-09-12T10:42:48;19.10;99.90
32660;DHT22;19064;47.912;12.308;2022-09-12T10:45:33;19.20;99.90
32660;DHT22;19064;47.912;12.308;2022-09-12T10:48:21;19.10;99.90
32660;DHT22;19064;47.912;12.308;2022-09-12T10:50:50;19.20;99.90
32660;DHT22;19064;47.912;12.308;2022-09-12T10:53:20;19.20;99.90
32660;DHT22;19064;47.912;12.308;2022-09-12T10:56:01;19.30;99.90
32660;DHT22;19064;47.912;12.308;2022-09-12T10:58:50;19.30;99.90
32660;DHT22;19064;47.912;12.308;2022-09-12T11:01:39;19.30;99.90
32660;DHT22;19064;47.912;12.308;2022-09-12T11:04:20;19.20;99.90
32660;DHT22;19064;47.912;12.308;2022-09-12T11:10:27;19.30;99.90
32660;DHT22;19064;47.912;12.308;2022-09-12T11:13:05;19.30;99.90
32660;DHT22;19064;47.912;12.308;2022-09-12T11:15:53;19.30;99.90
32660;DHT22;19064;47.912;12.308;2022-09-12T11:18:40;19.20;99.90
32660;DHT22;19064;47.912;12.308;2022-09-12T11:21:18;19.20;99.90
32660;DHT22;19064;47.912;12.308;2022-09-12T11:23:58;19.10;99.90
32660;DHT22;19064;47.912;12.308;2022-09-12T11:26:39;19.20;99.90
32660;DHT22;19064;47.912;12.308;2022-09-12T11:29:13;19.30;99.90
32660;DHT22;19064;47.912;12.308;2022-09-12T11:32:15;19.30;99.90
32660;DHT22;19064;47.912;12.308;2022-09-12T11:34:53;19.40;99.90
32660;DHT22;19064;47.912;12.308;2022-09-12T11:37:42;19.40;99.90
32660;DHT22;19064;47.912;12.308;2022-09-12T11:40:24;19.30;99.90
32660;DHT22;19064;47.912;12.308;2022-09-12T11:43:01;19.40;99.90
32660;DHT22;19064;47.912;12.308;2022-09-12T11:45:34;19.40;99.90
32660;DHT22;19064;47.912;12.308;2022-09-12T11:48:06;19.40;99.90
32660;DHT22;19064;47.912;12.308;2022-09-12T11:50:35;19.50;99.90
32660;DHT22;19064;47.912;12.308;2022-09-12T11:53:11;19.50;99.90
32660;DHT22;19064;47.912;12.308;2022-09-12T11:55:47;19.40;99.90
32660;DHT22;19064;47.912;12.308;2022-09-12T11:58:19;19.40;99.90
32660;DHT22;19064;47.912;12.308;2022-09-12T12:00:50;19.40;99.90
32660;DHT22;19064;47.912;12.308;2022-09-12T12:03:24;19.40;99.90
32660;DHT22;19064;47.912;12.308;2022-09-12T12:06:00;19.40;99.90
32660;DHT22;19064;47.912;12.308;2022-09-12T12:08:30;19.60;99.90
32660;DHT22;19064;47.912;12.308;2022-09-12T12:10:58;19.50;99.90
32660;DHT22;19064;47.912;12.308;2022-09-12T12:13:28;19.50;99.90
32660;DHT22;19064;47.912;12.308;2022-09-12T12:15:58;19.60;99.90
32660;DHT22;19064;47.912;12.308;2022-09-12T12:18:27;19.60;99.90
32660;DHT22;19064;47.912;12.308;2022-09-12T12:20:56;19.60;99.90
32660;DHT22;19064;47.912;12.308;2022-09-12T12:24:01;19.70;99.90
32660;DHT22;19064;47.912;12.308;2022-09-12T12:26:54;19.80;99.90
32660;DHT22;19064;47.912;12.308;2022-09-12T12:29:39;19.90;99.90
32660;DHT22;19064;47.912;12.308;2022-09-12T12:32:25;19.90;99.90
32660;DHT22;19064;47.912;12.308;2022-09-12T12:37:51;19.80;99.90
32660;DHT22;19064;47.912;12.308;2022-09-12T12:40:23;19.90;99.90
32660;DHT22;19064;47.912;12.308;2022-09-12T12:43:04;20.00;99.90
32660;DHT22;19064;47.912;12.308;2022-09-12T12:48:57;19.90;99.90
32660;DHT22;19064;47.912;12.308;2022-09-12T12:51:40;20.00;99.90
32660;DHT22;19064;47.912;12.308;2022-09-12T12:54:32;20.00;99.90
32660;DHT22;19064;47.912;12.308;2022-09-12T12:57:01;20.10;99.90
32660;DHT22;19064;47.912;12.308;2022-09-12T12:59:29;20.00;99.90
32660;DHT22;19064;47.912;12.308;2022-09-12T13:01:57;20.10;99.90
32660;DHT22;19064;47.912;12.308;2022-09-12T13:04:27;20.00;99.90
32660;DHT22;19064;47.912;12.308;2022-09-12T13:06:57;20.10;99.90
32660;DHT22;19064;47.912;12.308;2022-09-12T13:09:30;20.10;99.90
32660;DHT22;19064;47.912;12.308;2022-09-12T13:12:03;20.10;99.90
32660;DHT22;19064;47.912;12.308;2022-09-12T13:14:50;20.00;99.90
32660;DHT22;19064;47.912;12.308;2022-09-12T13:17:32;20.00;99.90
32660;DHT22;19064;47.912;12.308;2022-09-12T13:20:18;19.90;99.90
32660;DHT22;19064;47.912;12.308;2022-09-12T13:22:50;20.00;99.90
32660;DHT22;19064;47.912;12.308;2022-09-12T13:25:24;20.00;99.90
32660;DHT22;19064;47.912;12.308;2022-09-12T13:28:05;20.00;99.90
32660;DHT22;19064;47.912;12.308;2022-09-12T13:30:35;20.10;99.90
32660;DHT22;19064;47.912;12.308;2022-09-12T13:33:18;20.10;99.90
32660;DHT22;19064;47.912;12.308;2022-09-12T13:38:53;20.10;99.90
32660;DHT22;19064;47.912;12.308;2022-09-12T13:41:38;20.20;99.90
32660;DHT22;19064;47.912;12.308;2022-09-12T13:44:15;20.10;99.90
32660;DHT22;19064;47.912;12.308;2022-09-12T13:46:44;20.20;99.90
32660;DHT22;19064;47.912;12.308;2022-09-12T13:49:18;20.20;99.90
32660;DHT22;19064;47.912;12.308;2022-09-12T13:51:55;20.20;99.90
32660;DHT22;19064;47.912;12.308;2022-09-12T13:54:24;20.10;99.90
32660;DHT22;19064;47.912;12.308;2022-09-12T13:56:52;20.10;99.90
32660;DHT22;19064;47.912;12.308;2022-09-12T13:59:22;20.30;99.90
32660;DHT22;19064;47.912;12.308;2022-09-12T14:01:51;20.30;99.90
32660;DHT22;19064;47.912;12.308;2022-09-12T14:04:19;20.30;99.90
32660;DHT22;19064;47.912;12.308;2022-09-12T14:07:10;20.30;99.90
32660;DHT22;19064;47.912;12.308;2022-09-12T14:09:40;20.20;99.90
32660;DHT22;19064;47.912;12.308;2022-09-12T14:12:17;20.20;99.90
32660;DHT22;19064;47.912;12.308;2022-09-12T14:14:50;20.30;99.90
32660;DHT22;19064;47.912;12.308;2022-09-12T14:17:23;20.30;99.90
32660;DHT22;19064;47.912;12.308;2022-09-12T14:19:52;20.30;99.90
32660;DHT22;19064;47.912;12.308;2022-09-12T14:22:20;20.20;99.90
32660;DHT22;19064;47.912;12.308;2022-09-12T14:24:48;20.20;99.90
32660;DHT22;19064;47.912;12.308;2022-09-12T14:27:20;20.30;99.90
32660;DHT22;19064;47.912;12.308;2022-09-12T14:29:55;20.30;99.90
32660;DHT22;19064;47.912;12.308;2022-09-12T14:32:27;20.30;99.90
32660;DHT22;19064;47.912;12.308;2022-09-12T14:35:16;20.40;99.90
32660;DHT22;19064;47.912;12.308;2022-09-12T14:37:52;20.40;99.90
32660;DHT22;19064;47.912;12.308;2022-09-12T14:40:21;20.40;99.90
32660;DHT22;19064;47.912;12.308;2022-09-12T14:42:50;20.30;99.90
32660;DHT22;19064;47.912;12.308;2022-09-12T14:45:23;20.30;99.90
32660;DHT22;19064;47.912;12.308;2022-09-12T14:47:52;20.40;99.90
32660;DHT22;19064;47.912;12.308;2022-09-12T14:50:22;20.40;99.90
32660;DHT22;19064;47.912;12.308;2022-09-12T14:53:02;20.60;99.90
32660;DHT22;19064;47.912;12.308;2022-09-12T14:55:31;20.50;99.90
32660;DHT22;19064;47.912;12.308;2022-09-12T14:58:14;20.60;99.90
32660;DHT22;19064;47.912;12.308;2022-09-12T15:00:54;20.70;99.90
32660;DHT22;19064;47.912;12.308;2022-09-12T15:03:29;20.70;99.90
32660;DHT22;19064;47.912;12.308;2022-09-12T15:06:00;20.70;99.90
32660;DHT22;19064;47.912;12.308;2022-09-12T15:08:30;20.70;99.90
32660;DHT22;19064;47.912;12.308;2022-09-12T15:10:59;20.80;99.90
32660;DHT22;19064;47.912;12.308;2022-09-12T15:13:27;20.70;99.90
32660;DHT22;19064;47.912;12.308;2022-09-12T15:15:57;20.70;99.90
32660;DHT22;19064;47.912;12.308;2022-09-12T15:18:27;20.80;99.90
32660;DHT22;19064;47.912;12.308;2022-09-12T15:20:55;20.80;99.90
32660;DHT22;19064;47.912;12.308;2022-09-12T15:23:31;20.70;99.90
32660;DHT22;19064;47.912;12.308;2022-09-12T15:26:03;20.60;99.90
32660;DHT22;19064;47.912;12.308;2022-09-12T15:28:30;20.60;99.90
32660;DHT22;19064;47.912;12.308;2022-09-12T15:31:04;20.60;99.90
32660;DHT22;19064;47.912;12.308;2022-09-12T15:33:32;20.50;99.90
32660;DHT22;19064;47.912;12.308;2022-09-12T15:35:59;20.40;99.90
32660;DHT22;19064;47.912;12.308;2022-09-12T15:38:27;20.40;99.90
32660;DHT22;19064;47.912;12.308;2022-09-12T15:40:53;20.30;99.90
32660;DHT22;19064;47.912;12.308;2022-09-12T15:43:22;20.20;99.90
32660;DHT22;19064;47.912;12.308;2022-09-12T15:45:50;20.20;99.90
32660;DHT22;19064;47.912;12.308;2022-09-12T15:48:22;20.20;99.90
32660;DHT22;19064;47.912;12.308;2022-09-12T15:50:49;20.20;99.90
32660;DHT22;19064;47.912;12.308;2022-09-12T15:53:16;20.10;99.90
32660;DHT22;19064;47.912;12.308;2022-09-12T15:55:43;20.00;99.90
32660;DHT22;19064;47.912;12.308;2022-09-12T15:58:11;19.90;99.90
32660;DHT22;19064;47.912;12.308;2022-09-12T16:00:38;19.70;99.90
32660;DHT22;19064;47.912;12.308;2022-09-12T16:03:16;19.60;99.90
32660;DHT22;19064;47.912;12.308;2022-09-12T16:05:48;19.60;99.90
32660;DHT22;19064;47.912;12.308;2022-09-12T16:08:16;19.50;99.90
32660;DHT22;19064;47.912;12.308;2022-09-12T16:10:43;19.50;99.90
32660;DHT22;19064;47.912;12.308;2022-09-12T16:13:12;19.50;99.90
32660;DHT22;19064;47.912;12.308;2022-09-12T16:15:39;19.50;99.90
32660;DHT22;19064;47.912;12.308;2022-09-12T16:18:07;19.40;99.90
32660;DHT22;19064;47.912;12.308;2022-09-12T16:20:34;19.40;99.90
32660;DHT22;19064;47.912;12.308;2022-09-12T16:23:03;19.30;99.90
32660;DHT22;19064;47.912;12.308;2022-09-12T16:25:30;19.30;99.90
32660;DHT22;19064;47.912;12.308;2022-09-12T16:27:57;19.20;99.90
32660;DHT22;19064;47.912;12.308;2022-09-12T16:30:27;19.20;99.90
32660;DHT22;19064;47.912;12.308;2022-09-12T16:32:55;19.20;99.90
32660;DHT22;19064;47.912;12.308;2022-09-12T16:35:22;19.30;99.90